Flight Track Log - Related Links

Times and Time Zones

All times are in EDT time to prevent confusion due to time zone crossing. See the N525J flight status page for this flight to view local times or setup timezone preferences in your user account.

Time Position Orientation Groundspeed Altitude Reporting Facility
EDT Latitude Longitude Course Direction KTS MPH feet Rate Location/Type
Thu 04:48:42 PM 45.3042 -84.9400 157° South 213 245 8,000  Level Minneapolis Center
Thu 04:49:44 PM 45.2314 -84.8981 158° South 223 257 10,600 2,226 Climbing Minneapolis Center
Thu 04:50:46 PM 45.1642 -84.8597 158° South 237 273 12,600 2,032 Climbing Minneapolis Center
Thu 04:51:48 PM 45.0844 -84.8156 159° South 280 322 14,800 2,032 Climbing Minneapolis Center
Thu 04:52:50 PM 45.0156 -84.7758 158° South 272 313 16,800 1,935 Climbing Minneapolis Center
Thu 04:53:52 PM 44.9403 -84.7333 158° South 272 313 18,800 1,935 Climbing Minneapolis Center
Thu 04:54:54 PM 44.8719 -84.6944 158° South 269 310 20,800 2,032 Climbing Minneapolis Center
Thu 04:55:56 PM 44.7981 -84.6514 158° South 260 299 23,000 1,984 Climbing Minneapolis Center
Thu 04:56:58 PM 44.7317 -84.6142 158° South 258 297 24,900 1,680 Climbing Minneapolis Center
Thu 04:58:01 PM 44.6661 -84.5786 159° South 254 292 26,500 1,488 Climbing Minneapolis Center
Thu 04:59:03 PM 44.6003 -84.5408 158° South 253 291 28,000 1,452 Climbing Minneapolis Center
Thu 05:00:05 PM 44.5347 -84.5044 158° South 254 292 29,500 1,210 Climbing Minneapolis Center
Thu 05:01:07 PM 44.4675 -84.4675 159° South 258 297 30,500 919 Climbing Minneapolis Center
Thu 05:02:09 PM 44.3783 -84.4178 158° South 282 325 31,400 871 Climbing Minneapolis Center
Thu 05:03:11 PM 44.3019 -84.3611 152° Southeast 303 349 32,300 823 Climbing Minneapolis Center
Thu 05:04:13 PM 44.2200 -84.3069 155° Southeast 321 369 33,100 774 Climbing Minneapolis Center
Thu 05:05:15 PM 44.1353 -84.2494 154° Southeast 333 383 33,900 871 Climbing Minneapolis Center
Thu 05:06:17 PM 44.0511 -84.1922 154° Southeast 336 387 34,900 532 Climbing Minneapolis Center
Thu 05:07:19 PM 43.9675 -84.1347 154° Southeast 334 384 35,000 48 Climbing Minneapolis Center
Thu 05:08:21 PM 43.8697 -84.0694 154° Southeast 353 406 35,000  Level Minneapolis Center
Thu 05:09:23 PM 43.7756 -84.0058 154° Southeast 368 423 35,000  Level Minneapolis Center
Thu 05:10:25 PM 43.6794 -83.9408 154° Southeast 379 436 35,000  Level Minneapolis Center
Thu 05:11:27 PM 43.5644 -83.8642 154° Southeast 382 440 35,000  Level Minneapolis Center
Thu 05:12:30 PM 43.4689 -83.8003 154° Southeast 382 440 35,000 -384 Level Minneapolis Center
Thu 05:13:32 PM 43.3711 -83.7361 154° Southeast 385 443 34,200 -919 Descending Minneapolis Center
Thu 05:14:34 PM 43.2686 -83.6678 154° Southeast 400 460 33,100 -590 Descending Minneapolis Center
Thu 05:15:34 PM 43.1625 -83.6031 156° South 404 465 33,000 -550 Descending Cleveland Center
Thu 05:16:34 PM 43.0644 -83.5358 153° Southeast 399 459 32,000 -1,000 Descending Cleveland Center
Thu 05:17:34 PM 42.9597 -83.4683 155° Southeast 404 465 31,000 -500 Descending Cleveland Center
Thu 05:18:34 PM 42.8592 -83.4014 154° Southeast 404 465 31,000  Level Cleveland Center
Thu 05:19:34 PM 42.7567 -83.3347 154° Southeast 404 465 31,000  Level Cleveland Center
Thu 05:20:34 PM 42.6600 -83.2739 155° Southeast 398 458 31,000 -200 Level Cleveland Center
Thu 05:21:34 PM 42.5617 -83.2078 154° Southeast 393 452 30,600 -950 Descending Cleveland Center
Thu 05:22:34 PM 42.4589 -83.1414 155° Southeast 398 458 29,100 -1,500 Descending Cleveland Center
Thu 05:23:34 PM 42.3497 -83.0753 156° South 413 475 27,600 -1,050 Descending Cleveland Center
Thu 05:24:34 PM 42.2469 -83.0094 155° Southeast 413 475 27,000 -300 Descending Cleveland Center
Thu 05:25:34 PM 42.1483 -82.9442 154° Southeast 413 475 27,000 -50 Level Cleveland Center
Thu 05:26:34 PM 42.0494 -82.8844 156° South 402 463 26,900 -950 Descending Cleveland Center
Thu 05:27:34 PM 41.9506 -82.8222 155° Southeast 396 456 25,100 -950 Descending Cleveland Center
Thu 05:28:34 PM 41.8539 -82.7603 154° Southeast 391 450 25,000 -50 Descending Cleveland Center
Thu 05:29:34 PM 41.7611 -82.7044 156° South 378 435 25,000  Level Cleveland Center
Thu 05:30:34 PM 41.6581 -82.6397 155° Southeast 378 435 25,000  Level Cleveland Center
Thu 05:31:34 PM 41.5736 -82.5844 154° Southeast 378 435 25,000  Level Cleveland Center
Thu 05:32:34 PM 41.4764 -82.5258 156° South 378 435 25,000 50 Level Cleveland Center
Thu 05:33:34 PM 41.3817 -82.4678 155° Southeast 378 435 25,100  Climbing Cleveland Center
Thu 05:34:34 PM 41.2844 -82.4097 156° South 378 435 25,000 -100 Descending Cleveland Center
Thu 05:35:34 PM 41.1894 -82.3519 155° Southeast 378 435 24,900 -500 Descending Cleveland Center
Thu 05:36:34 PM 41.0925 -82.2914 155° Southeast 373 429 24,000 -1,600 Descending Cleveland Center
Thu 05:37:34 PM 41.0167 -82.2094 141° Southeast 346 398 21,700 -3,000 Descending Cleveland Center
Thu 05:38:34 PM 40.9469 -82.1169 135° Southeast 351 404 18,000 -3,950 Descending Cleveland Center
Thu 05:39:34 PM 40.8856 -82.0333 134° Southeast 334 384 13,800 -3,400 Descending Cleveland Center
Thu 05:40:34 PM 40.8214 -81.9878 152° Southeast 296 341 11,200 -1,400 Descending Cleveland Center
Thu 05:41:34 PM 40.7464 -81.9808 176° South 261 300 11,000 -1,704 Descending Cleveland Center
Thu 05:43:23 PM 40.6244 -81.9658 175° South 253 291 6,400 -2,532 Descending Indianapolis Center

Login

Don't have an account? Register now (free) for customized features, flight alerts, and more!